sensor_id;sensor_type;location;lat;lon;timestamp;pressure;altitude;pressure_sealevel;temperature;humidity
2675;BME280;1347;42.122;24.746;2023-02-18T00:01:18;100296.88;;;8.24;47.72
2675;BME280;1347;42.122;24.746;2023-02-18T00:03:46;100296.06;;;8.23;47.25
2675;BME280;1347;42.122;24.746;2023-02-18T00:06:15;100293.44;;;8.27;47.36
2675;BME280;1347;42.122;24.746;2023-02-18T00:08:43;100295.25;;;8.23;47.70
2675;BME280;1347;42.122;24.746;2023-02-18T00:11:11;100294.47;;;8.22;47.27
2675;BME280;1347;42.122;24.746;2023-02-18T00:13:38;100294.94;;;8.24;47.31
2675;BME280;1347;42.122;24.746;2023-02-18T00:16:07;100291.59;;;8.19;47.63
2675;BME280;1347;42.122;24.746;2023-02-18T00:18:36;100287.97;;;8.27;47.25
2675;BME280;1347;42.122;24.746;2023-02-18T00:21:04;100280.91;;;8.26;47.15
2675;BME280;1347;42.122;24.746;2023-02-18T00:23:31;100274.78;;;8.29;47.30
2675;BME280;1347;42.122;24.746;2023-02-18T00:25:59;100280.91;;;8.34;46.85
2675;BME280;1347;42.122;24.746;2023-02-18T00:28:26;100275.44;;;8.34;46.68
2675;BME280;1347;42.122;24.746;2023-02-18T00:30:53;100273.47;;;8.35;46.98
2675;BME280;1347;42.122;24.746;2023-02-18T00:33:20;100274.78;;;8.29;47.08
2675;BME280;1347;42.122;24.746;2023-02-18T00:35:49;100271.09;;;8.33;46.89
2675;BME280;1347;42.122;24.746;2023-02-18T00:38:16;100267.34;;;8.38;46.51
2675;BME280;1347;42.122;24.746;2023-02-18T00:40:43;100264.94;;;8.36;46.81
2675;BME280;1347;42.122;24.746;2023-02-18T00:43:10;100263.81;;;8.37;46.44
2675;BME280;1347;42.122;24.746;2023-02-18T00:45:37;100256.31;;;8.34;46.62
2675;BME280;1347;42.122;24.746;2023-02-18T00:48:04;100251.41;;;8.40;46.67
2675;BME280;1347;42.122;24.746;2023-02-18T00:50:31;100255.88;;;8.44;46.43
2675;BME280;1347;42.122;24.746;2023-02-18T00:52:59;100241.53;;;8.47;46.41
2675;BME280;1347;42.122;24.746;2023-02-18T00:55:26;100235.88;;;8.53;46.40
2675;BME280;1347;42.122;24.746;2023-02-18T00:57:53;100237.09;;;8.55;46.56
2675;BME280;1347;42.122;24.746;2023-02-18T01:00:20;100245.09;;;8.60;46.46
2675;BME280;1347;42.122;24.746;2023-02-18T01:02:46;100227.09;;;8.59;46.41
2675;BME280;1347;42.122;24.746;2023-02-18T01:05:18;100232.56;;;8.59;46.63
2675;BME280;1347;42.122;24.746;2023-02-18T01:07:45;100222.44;;;8.60;46.54
2675;BME280;1347;42.122;24.746;2023-02-18T01:12:41;100212.88;;;8.54;46.83
2675;BME280;1347;42.122;24.746;2023-02-18T01:15:09;100212.06;;;8.53;46.94
2675;BME280;1347;42.122;24.746;2023-02-18T01:17:36;100206.34;;;8.46;47.02
2675;BME280;1347;42.122;24.746;2023-02-18T01:20:04;100204.41;;;8.34;47.28
2675;BME280;1347;42.122;24.746;2023-02-18T01:22:32;100206.78;;;8.36;47.21
2675;BME280;1347;42.122;24.746;2023-02-18T01:24:59;100197.78;;;8.35;47.20
2675;BME280;1347;42.122;24.746;2023-02-18T01:27:27;100202.50;;;8.26;47.34
2675;BME280;1347;42.122;24.746;2023-02-18T01:29:54;100190.34;;;8.24;47.51
2675;BME280;1347;42.122;24.746;2023-02-18T01:32:21;100199.88;;;8.18;47.83
2675;BME280;1347;42.122;24.746;2023-02-18T01:34:47;100194.88;;;8.20;47.77
2675;BME280;1347;42.122;24.746;2023-02-18T01:37:14;100185.03;;;8.06;47.95
2675;BME280;1347;42.122;24.746;2023-02-18T01:39:41;100179.09;;;8.04;48.05
2675;BME280;1347;42.122;24.746;2023-02-18T01:42:18;100177.88;;;8.02;48.11
2675;BME280;1347;42.122;24.746;2023-02-18T01:44:47;100181.94;;;7.96;48.14
2675;BME280;1347;42.122;24.746;2023-02-18T01:47:15;100180.69;;;7.93;48.23
2675;BME280;1347;42.122;24.746;2023-02-18T01:49:44;100176.88;;;7.86;48.27
2675;BME280;1347;42.122;24.746;2023-02-18T01:52:15;100172.69;;;7.88;48.53
2675;BME280;1347;42.122;24.746;2023-02-18T01:54:44;100181.75;;;7.80;48.70
2675;BME280;1347;42.122;24.746;2023-02-18T01:57:15;100179.56;;;7.73;48.96
2675;BME280;1347;42.122;24.746;2023-02-18T01:59:49;100180.34;;;7.74;48.77
2675;BME280;1347;42.122;24.746;2023-02-18T02:02:19;100177.97;;;7.72;48.93
2675;BME280;1347;42.122;24.746;2023-02-18T02:04:47;100178.16;;;7.67;48.91
2675;BME280;1347;42.122;24.746;2023-02-18T02:07:15;100181.38;;;7.69;48.64
2675;BME280;1347;42.122;24.746;2023-02-18T02:09:43;100179.13;;;7.71;49.36
2675;BME280;1347;42.122;24.746;2023-02-18T02:12:24;100181.56;;;7.64;49.57
2675;BME280;1347;42.122;24.746;2023-02-18T02:15:17;100178.00;;;7.52;49.50
2675;BME280;1347;42.122;24.746;2023-02-18T02:17:58;100179.13;;;7.51;49.65
2675;BME280;1347;42.122;24.746;2023-02-18T02:23:44;100195.41;;;7.38;49.95
2675;BME280;1347;42.122;24.746;2023-02-18T02:29:57;100196.38;;;7.34;49.85
2675;BME280;1347;42.122;24.746;2023-02-18T02:33:09;100184.69;;;7.33;49.72
2675;BME280;1347;42.122;24.746;2023-02-18T02:35:44;100194.59;;;7.38;49.85
2675;BME280;1347;42.122;24.746;2023-02-18T02:38:20;100186.41;;;7.38;49.57
2675;BME280;1347;42.122;24.746;2023-02-18T02:40:53;100193.94;;;7.41;49.65
2675;BME280;1347;42.122;24.746;2023-02-18T02:43:29;100200.22;;;7.42;49.57
2675;BME280;1347;42.122;24.746;2023-02-18T02:46:01;100204.19;;;7.44;49.59
2675;BME280;1347;42.122;24.746;2023-02-18T02:48:41;100211.22;;;7.45;49.54
2675;BME280;1347;42.122;24.746;2023-02-18T02:51:16;100202.94;;;7.42;49.62
2675;BME280;1347;42.122;24.746;2023-02-18T02:53:45;100197.34;;;7.38;49.43
2675;BME280;1347;42.122;24.746;2023-02-18T02:56:17;100197.66;;;7.36;49.40
2675;BME280;1347;42.122;24.746;2023-02-18T02:58:59;100207.44;;;7.37;49.50
2675;BME280;1347;42.122;24.746;2023-02-18T03:01:35;100201.81;;;7.43;49.23
2675;BME280;1347;42.122;24.746;2023-02-18T03:04:39;100196.47;;;7.46;49.18
2675;BME280;1347;42.122;24.746;2023-02-18T03:07:31;100199.34;;;7.50;48.85
2675;BME280;1347;42.122;24.746;2023-02-18T03:10:20;100197.41;;;7.50;48.98
2675;BME280;1347;42.122;24.746;2023-02-18T03:13:04;100190.03;;;7.51;48.88
2675;BME280;1347;42.122;24.746;2023-02-18T03:15:38;100181.38;;;7.49;48.77
2675;BME280;1347;42.122;24.746;2023-02-18T03:18:14;100178.31;;;7.50;48.67
2675;BME280;1347;42.122;24.746;2023-02-18T03:20:46;100178.66;;;7.49;48.47
2675;BME280;1347;42.122;24.746;2023-02-18T03:23:22;100172.53;;;7.52;48.35
2675;BME280;1347;42.122;24.746;2023-02-18T03:25:50;100167.06;;;7.52;48.09
2675;BME280;1347;42.122;24.746;2023-02-18T03:28:20;100159.34;;;7.54;48.16
2675;BME280;1347;42.122;24.746;2023-02-18T03:30:50;100158.81;;;7.60;47.71
2675;BME280;1347;42.122;24.746;2023-02-18T03:33:24;100164.84;;;7.66;47.87
2675;BME280;1347;42.122;24.746;2023-02-18T03:35:53;100169.19;;;7.67;47.64
2675;BME280;1347;42.122;24.746;2023-02-18T03:38:23;100165.00;;;7.69;47.44
2675;BME280;1347;42.122;24.746;2023-02-18T03:40:51;100171.84;;;7.75;47.32
2675;BME280;1347;42.122;24.746;2023-02-18T03:43:18;100165.84;;;7.82;47.09
2675;BME280;1347;42.122;24.746;2023-02-18T03:45:45;100172.56;;;7.85;46.97
2675;BME280;1347;42.122;24.746;2023-02-18T03:48:12;100167.84;;;7.94;46.57
2675;BME280;1347;42.122;24.746;2023-02-18T03:50:39;100170.91;;;8.04;46.33
2675;BME280;1347;42.122;24.746;2023-02-18T03:53:06;100182.91;;;8.12;45.78
2675;BME280;1347;42.122;24.746;2023-02-18T03:55:34;100186.81;;;8.23;45.75
2675;BME280;1347;42.122;24.746;2023-02-18T03:58:01;100182.16;;;8.24;45.95
2675;BME280;1347;42.122;24.746;2023-02-18T04:00:28;100193.41;;;8.22;45.88
2675;BME280;1347;42.122;24.746;2023-02-18T04:02:55;100194.06;;;8.19;46.28
2675;BME280;1347;42.122;24.746;2023-02-18T04:05:22;100193.28;;;8.19;46.30
2675;BME280;1347;42.122;24.746;2023-02-18T04:07:49;100196.66;;;8.16;46.45
2675;BME280;1347;42.122;24.746;2023-02-18T04:10:17;100200.28;;;8.07;46.63
2675;BME280;1347;42.122;24.746;2023-02-18T04:12:45;100199.28;;;8.12;46.50
2675;BME280;1347;42.122;24.746;2023-02-18T04:15:12;100200.44;;;8.11;46.82
2675;BME280;1347;42.122;24.746;2023-02-18T04:17:39;100202.13;;;8.16;46.22
2675;BME280;1347;42.122;24.746;2023-02-18T04:20:07;100210.69;;;8.26;45.95
2675;BME280;1347;42.122;24.746;2023-02-18T04:22:34;100211.34;;;8.32;45.83
2675;BME280;1347;42.122;24.746;2023-02-18T04:25:00;100213.97;;;8.40;45.53
2675;BME280;1347;42.122;24.746;2023-02-18T04:27:27;100220.81;;;8.46;45.34
2675;BME280;1347;42.122;24.746;2023-02-18T04:29:56;100220.72;;;8.55;45.21
2675;BME280;1347;42.122;24.746;2023-02-18T04:32:23;100214.38;;;8.63;44.92
2675;BME280;1347;42.122;24.746;2023-02-18T04:34:50;100213.78;;;8.70;44.79
2675;BME280;1347;42.122;24.746;2023-02-18T04:37:17;100227.25;;;8.75;44.75
2675;BME280;1347;42.122;24.746;2023-02-18T04:39:44;100236.34;;;8.79;44.67
2675;BME280;1347;42.122;24.746;2023-02-18T04:42:11;100233.28;;;8.80;44.58
2675;BME280;1347;42.122;24.746;2023-02-18T04:44:38;100233.50;;;8.88;44.49
2675;BME280;1347;42.122;24.746;2023-02-18T04:47:06;100234.31;;;8.88;44.25
2675;BME280;1347;42.122;24.746;2023-02-18T04:49:33;100217.56;;;8.90;44.21
2675;BME280;1347;42.122;24.746;2023-02-18T04:52:00;100234.66;;;8.99;43.96
2675;BME280;1347;42.122;24.746;2023-02-18T04:54:27;100226.59;;;9.02;43.58
2675;BME280;1347;42.122;24.746;2023-02-18T04:56:54;100216.91;;;9.05;43.71
2675;BME280;1347;42.122;24.746;2023-02-18T04:59:21;100211.66;;;9.12;43.47
2675;BME280;1347;42.122;24.746;2023-02-18T05:01:48;100219.06;;;9.11;43.53
2675;BME280;1347;42.122;24.746;2023-02-18T05:04:17;100215.75;;;9.18;43.42
2675;BME280;1347;42.122;24.746;2023-02-18T05:06:44;100223.75;;;9.23;43.20
2675;BME280;1347;42.122;24.746;2023-02-18T05:09:11;100216.19;;;9.32;43.11
2675;BME280;1347;42.122;24.746;2023-02-18T05:11:38;100218.25;;;9.35;42.98
2675;BME280;1347;42.122;24.746;2023-02-18T05:14:05;100216.09;;;9.29;42.97
2675;BME280;1347;42.122;24.746;2023-02-18T05:16:32;100212.31;;;9.33;43.05
2675;BME280;1347;42.122;24.746;2023-02-18T05:18:59;100216.31;;;9.36;42.89
2675;BME280;1347;42.122;24.746;2023-02-18T05:21:27;100211.75;;;9.40;42.91
2675;BME280;1347;42.122;24.746;2023-02-18T05:23:54;100210.25;;;9.42;42.71
2675;BME280;1347;42.122;24.746;2023-02-18T05:26:21;100218.69;;;9.37;42.70
2675;BME280;1347;42.122;24.746;2023-02-18T05:28:48;100214.38;;;9.36;43.10
2675;BME280;1347;42.122;24.746;2023-02-18T05:31:15;100208.19;;;9.39;42.88
2675;BME280;1347;42.122;24.746;2023-02-18T05:33:41;100211.84;;;9.43;42.73
2675;BME280;1347;42.122;24.746;2023-02-18T05:36:08;100213.31;;;9.53;42.43
2675;BME280;1347;42.122;24.746;2023-02-18T05:38:37;100204.50;;;9.59;42.38
2675;BME280;1347;42.122;24.746;2023-02-18T05:41:04;100195.63;;;9.63;42.30
2675;BME280;1347;42.122;24.746;2023-02-18T05:43:31;100197.69;;;9.66;42.37
2675;BME280;1347;42.122;24.746;2023-02-18T05:46:19;100206.78;;;9.70;42.42
2675;BME280;1347;42.122;24.746;2023-02-18T05:48:45;100201.06;;;9.75;42.13
2675;BME280;1347;42.122;24.746;2023-02-18T05:51:12;100194.88;;;9.78;42.14
2675;BME280;1347;42.122;24.746;2023-02-18T05:53:41;100201.91;;;9.91;42.14
2675;BME280;1347;42.122;24.746;2023-02-18T05:56:08;100202.91;;;9.98;41.83
2675;BME280;1347;42.122;24.746;2023-02-18T05:58:35;100193.66;;;10.03;41.78
2675;BME280;1347;42.122;24.746;2023-02-18T06:01:02;100209.28;;;10.03;42.05
2675;BME280;1347;42.122;24.746;2023-02-18T06:03:30;100206.78;;;9.97;42.15
2675;BME280;1347;42.122;24.746;2023-02-18T06:05:56;100210.19;;;10.07;42.29
2675;BME280;1347;42.122;24.746;2023-02-18T06:08:23;100203.19;;;10.09;42.06
2675;BME280;1347;42.122;24.746;2023-02-18T06:10:52;100204.09;;;10.25;41.50
2675;BME280;1347;42.122;24.746;2023-02-18T06:13:19;100206.56;;;10.30;41.26
2675;BME280;1347;42.122;24.746;2023-02-18T06:15:49;100208.59;;;10.33;41.08
2675;BME280;1347;42.122;24.746;2023-02-18T06:18:16;100212.59;;;10.36;41.22
2675;BME280;1347;42.122;24.746;2023-02-18T06:20:43;100203.56;;;10.36;41.26
2675;BME280;1347;42.122;24.746;2023-02-18T06:23:10;100207.13;;;10.36;41.22
2675;BME280;1347;42.122;24.746;2023-02-18T06:25:37;100211.28;;;10.46;41.26
2675;BME280;1347;42.122;24.746;2023-02-18T06:28:05;100200.38;;;10.49;41.09
2675;BME280;1347;42.122;24.746;2023-02-18T06:30:32;100205.19;;;10.52;41.13
2675;BME280;1347;42.122;24.746;2023-02-18T06:32:59;100202.09;;;10.54;40.85
2675;BME280;1347;42.122;24.746;2023-02-18T06:35:28;100203.41;;;10.60;40.78
2675;BME280;1347;42.122;24.746;2023-02-18T06:37:55;100209.78;;;10.64;40.60
2675;BME280;1347;42.122;24.746;2023-02-18T06:40:22;100208.03;;;10.72;40.70
2675;BME280;1347;42.122;24.746;2023-02-18T06:42:49;100215.47;;;10.87;40.70
2675;BME280;1347;42.122;24.746;2023-02-18T06:45:17;100210.41;;;11.04;40.24
2675;BME280;1347;42.122;24.746;2023-02-18T06:47:44;100206.94;;;11.23;39.85
2675;BME280;1347;42.122;24.746;2023-02-18T06:50:11;100203.78;;;11.40;40.13
2675;BME280;1347;42.122;24.746;2023-02-18T06:52:38;100192.06;;;11.59;39.58
2675;BME280;1347;42.122;24.746;2023-02-18T06:55:06;100178.13;;;11.68;38.96
2675;BME280;1347;42.122;24.746;2023-02-18T06:57:34;100182.31;;;11.81;38.94
2675;BME280;1347;42.122;24.746;2023-02-18T07:00:02;100172.19;;;12.04;38.79
2675;BME280;1347;42.122;24.746;2023-02-18T07:02:30;100168.50;;;12.16;38.78
2675;BME280;1347;42.122;24.746;2023-02-18T07:04:57;100159.78;;;12.33;38.33
2675;BME280;1347;42.122;24.746;2023-02-18T07:07:24;100162.00;;;12.47;38.58
2675;BME280;1347;42.122;24.746;2023-02-18T07:09:51;100169.31;;;12.85;38.12
2675;BME280;1347;42.122;24.746;2023-02-18T07:12:18;100168.41;;;13.53;37.41
2675;BME280;1347;42.122;24.746;2023-02-18T07:14:45;100169.91;;;14.95;35.38
2675;BME280;1347;42.122;24.746;2023-02-18T07:17:12;100178.53;;;16.52;33.71
2675;BME280;1347;42.122;24.746;2023-02-18T07:19:40;100180.06;;;17.60;31.77
2675;BME280;1347;42.122;24.746;2023-02-18T07:22:07;100166.13;;;17.81;31.49
2675;BME280;1347;42.122;24.746;2023-02-18T07:24:34;100160.78;;;18.26;30.59
2675;BME280;1347;42.122;24.746;2023-02-18T07:27:01;100161.88;;;18.94;29.88
2675;BME280;1347;42.122;24.746;2023-02-18T07:29:28;100166.63;;;19.76;28.78
2675;BME280;1347;42.122;24.746;2023-02-18T07:31:55;100172.03;;;19.90;28.29
2675;BME280;1347;42.122;24.746;2023-02-18T07:34:22;100176.34;;;20.25;28.12
2675;BME280;1347;42.122;24.746;2023-02-18T07:36:50;100172.13;;;20.67;27.70
2675;BME280;1347;42.122;24.746;2023-02-18T07:39:17;100134.91;;;20.27;27.68
2675;BME280;1347;42.122;24.746;2023-02-18T07:41:45;100143.38;;;19.59;28.11
2675;BME280;1347;42.122;24.746;2023-02-18T07:44:12;100128.00;;;18.65;29.10
2675;BME280;1347;42.122;24.746;2023-02-18T07:46:39;100134.56;;;18.86;29.07
2675;BME280;1347;42.122;24.746;2023-02-18T07:49:06;100137.63;;;19.02;28.79
2675;BME280;1347;42.122;24.746;2023-02-18T07:51:33;100132.66;;;18.79;29.27
2675;BME280;1347;42.122;24.746;2023-02-18T07:54:03;100130.38;;;18.08;29.54
2675;BME280;1347;42.122;24.746;2023-02-18T07:56:30;100134.56;;;17.50;30.14
2675;BME280;1347;42.122;24.746;2023-02-18T07:58:57;100121.09;;;17.45;30.28
2675;BME280;1347;42.122;24.746;2023-02-18T08:01:24;100122.69;;;17.46;30.60
2675;BME280;1347;42.122;24.746;2023-02-18T08:03:51;100131.78;;;17.47;30.83
2675;BME280;1347;42.122;24.746;2023-02-18T08:06:20;100120.06;;;18.05;30.45
2675;BME280;1347;42.122;24.746;2023-02-18T08:08:48;100122.50;;;18.62;29.56
2675;BME280;1347;42.122;24.746;2023-02-18T08:11:17;100115.69;;;20.09;28.51
2675;BME280;1347;42.122;24.746;2023-02-18T08:13:43;100126.28;;;22.17;26.88
2675;BME280;1347;42.122;24.746;2023-02-18T08:16:10;100122.22;;;23.90;24.87
2675;BME280;1347;42.122;24.746;2023-02-18T08:18:37;100114.59;;;26.22;23.16
2675;BME280;1347;42.122;24.746;2023-02-18T08:21:04;100110.94;;;27.29;22.34
2675;BME280;1347;42.122;24.746;2023-02-18T08:23:31;100120.03;;;28.12;22.45
2675;BME280;1347;42.122;24.746;2023-02-18T08:25:58;100116.50;;;28.77;20.96
2675;BME280;1347;42.122;24.746;2023-02-18T08:28:26;100115.81;;;27.56;21.46
2675;BME280;1347;42.122;24.746;2023-02-18T08:30:54;100109.03;;;26.31;22.54
2675;BME280;1347;42.122;24.746;2023-02-18T08:33:21;100112.56;;;24.79;23.25
2675;BME280;1347;42.122;24.746;2023-02-18T08:35:50;100115.09;;;23.72;24.41
2675;BME280;1347;42.122;24.746;2023-02-18T08:38:17;100109.31;;;22.44;25.56
2675;BME280;1347;42.122;24.746;2023-02-18T08:40:44;100115.06;;;24.14;24.56
2675;BME280;1347;42.122;24.746;2023-02-18T08:43:12;100121.75;;;26.14;23.20
2675;BME280;1347;42.122;24.746;2023-02-18T08:45:40;100123.13;;;27.54;22.24
2675;BME280;1347;42.122;24.746;2023-02-18T08:48:09;100119.22;;;27.69;21.55
2675;BME280;1347;42.122;24.746;2023-02-18T08:50:36;100125.47;;;27.09;21.87
2675;BME280;1347;42.122;24.746;2023-02-18T08:53:03;100129.50;;;28.75;21.73
2675;BME280;1347;42.122;24.746;2023-02-18T08:55:31;100131.75;;;29.86;20.14
2675;BME280;1347;42.122;24.746;2023-02-18T08:57:58;100137.94;;;28.84;20.76
2675;BME280;1347;42.122;24.746;2023-02-18T09:00:25;100135.91;;;25.80;22.78
2675;BME280;1347;42.122;24.746;2023-02-18T09:02:54;100138.88;;;26.07;22.66
2675;BME280;1347;42.122;24.746;2023-02-18T09:05:21;100132.34;;;27.18;21.41
2675;BME280;1347;42.122;24.746;2023-02-18T09:07:47;100130.72;;;28.08;20.88
2675;BME280;1347;42.122;24.746;2023-02-18T09:10:14;100130.53;;;28.20;21.42
2675;BME280;1347;42.122;24.746;2023-02-18T09:12:41;100124.34;;;29.74;20.19
2675;BME280;1347;42.122;24.746;2023-02-18T09:15:08;100127.47;;;30.06;20.17
2675;BME280;1347;42.122;24.746;2023-02-18T09:17:35;100124.22;;;29.39;20.67
2675;BME280;1347;42.122;24.746;2023-02-18T09:20:05;100109.56;;;27.06;21.86
2675;BME280;1347;42.122;24.746;2023-02-18T09:22:32;100111.50;;;26.79;21.83
2675;BME280;1347;42.122;24.746;2023-02-18T09:24:59;100116.59;;;25.60;22.86
2675;BME280;1347;42.122;24.746;2023-02-18T09:27:26;100117.81;;;27.01;21.94
2675;BME280;1347;42.122;24.746;2023-02-18T09:29:53;100116.38;;;27.88;21.04
2675;BME280;1347;42.122;24.746;2023-02-18T09:32:20;100106.78;;;28.45;20.83
2675;BME280;1347;42.122;24.746;2023-02-18T09:34:46;100109.25;;;28.76;20.94
2675;BME280;1347;42.122;24.746;2023-02-18T09:37:15;100118.00;;;27.06;21.31
2675;BME280;1347;42.122;24.746;2023-02-18T09:39:42;100130.66;;;25.47;22.49
2675;BME280;1347;42.122;24.746;2023-02-18T09:42:12;100125.03;;;24.15;23.57
2675;BME280;1347;42.122;24.746;2023-02-18T09:44:42;100125.44;;;23.46;24.15
2675;BME280;1347;42.122;24.746;2023-02-18T09:47:14;100120.75;;;22.66;24.72
2675;BME280;1347;42.122;24.746;2023-02-18T09:49:45;100120.56;;;24.17;24.04
2675;BME280;1347;42.122;24.746;2023-02-18T09:52:18;100123.75;;;25.05;23.05
2675;BME280;1347;42.122;24.746;2023-02-18T09:54:48;100127.19;;;25.21;22.99
2675;BME280;1347;42.122;24.746;2023-02-18T09:57:22;100107.94;;;25.33;22.98
2675;BME280;1347;42.122;24.746;2023-02-18T11:20:23;99951.31;;;24.97;23.85
2675;BME280;1347;42.122;24.746;2023-02-18T11:22:51;99954.94;;;24.03;24.02
2675;BME280;1347;42.122;24.746;2023-02-18T11:25:20;99956.56;;;23.91;24.62
2675;BME280;1347;42.122;24.746;2023-02-18T11:27:49;99952.38;;;24.08;24.78
2675;BME280;1347;42.122;24.746;2023-02-18T11:30:19;99957.31;;;24.04;24.36
2675;BME280;1347;42.122;24.746;2023-02-18T11:32:48;99944.31;;;24.10;24.62
2675;BME280;1347;42.122;24.746;2023-02-18T11:35:19;99944.97;;;25.05;23.88
2675;BME280;1347;42.122;24.746;2023-02-18T11:37:47;99935.59;;;25.21;23.54
2675;BME280;1347;42.122;24.746;2023-02-18T11:40:21;99941.78;;;25.78;22.85
2675;BME280;1347;42.122;24.746;2023-02-18T11:42:48;99947.31;;;25.59;23.05
2675;BME280;1347;42.122;24.746;2023-02-18T11:45:27;99933.63;;;25.30;23.47
2675;BME280;1347;42.122;24.746;2023-02-18T11:47:58;99938.44;;;24.86;23.62
2675;BME280;1347;42.122;24.746;2023-02-18T11:50:30;99936.81;;;24.76;23.64
2675;BME280;1347;42.122;24.746;2023-02-18T11:52:58;99930.00;;;24.43;24.29
2675;BME280;1347;42.122;24.746;2023-02-18T11:55:26;99933.69;;;24.52;24.25
2675;BME280;1347;42.122;24.746;2023-02-18T11:57:57;99928.59;;;24.60;24.05
2675;BME280;1347;42.122;24.746;2023-02-18T12:00:36;99931.81;;;24.71;24.21
2675;BME280;1347;42.122;24.746;2023-02-18T12:03:12;99921.75;;;25.05;23.72
2675;BME280;1347;42.122;24.746;2023-02-18T12:05:43;99918.78;;;26.19;23.06
2675;BME280;1347;42.122;24.746;2023-02-18T12:08:13;99917.84;;;26.13;23.06
2675;BME280;1347;42.122;24.746;2023-02-18T12:10:46;99915.84;;;26.50;23.02
2675;BME280;1347;42.122;24.746;2023-02-18T12:13:22;99912.13;;;26.53;22.56
2675;BME280;1347;42.122;24.746;2023-02-18T12:15:58;99907.97;;;27.27;22.93
2675;BME280;1347;42.122;24.746;2023-02-18T12:18:34;99890.13;;;27.21;22.51
2675;BME280;1347;42.122;24.746;2023-02-18T12:21:31;99890.19;;;27.03;22.68
2675;BME280;1347;42.122;24.746;2023-02-18T12:24:09;99892.81;;;27.48;22.62
2675;BME280;1347;42.122;24.746;2023-02-18T12:26:48;99886.56;;;27.11;23.21
2675;BME280;1347;42.122;24.746;2023-02-18T12:29:31;99883.50;;;27.99;22.43
2675;BME280;1347;42.122;24.746;2023-02-18T12:32:15;99867.38;;;28.77;21.65
2675;BME280;1347;42.122;24.746;2023-02-18T12:34:51;99875.53;;;27.74;22.78
2675;BME280;1347;42.122;24.746;2023-02-18T12:37:53;99859.78;;;26.47;23.29
2675;BME280;1347;42.122;24.746;2023-02-18T12:40:51;99866.28;;;25.80;24.32
2675;BME280;1347;42.122;24.746;2023-02-18T12:43:31;99870.66;;;25.41;24.60
2675;BME280;1347;42.122;24.746;2023-02-18T12:46:21;99871.38;;;24.70;25.34
2675;BME280;1347;42.122;24.746;2023-02-18T12:49:06;99869.31;;;24.27;25.49
2675;BME280;1347;42.122;24.746;2023-02-18T12:51:45;99867.56;;;24.08;25.62
2675;BME280;1347;42.122;24.746;2023-02-18T12:54:28;99860.47;;;23.81;26.08
2675;BME280;1347;42.122;24.746;2023-02-18T12:57:07;99845.59;;;23.21;26.68
2675;BME280;1347;42.122;24.746;2023-02-18T13:02:57;99843.94;;;23.24;26.76
2675;BME280;1347;42.122;24.746;2023-02-18T13:05:30;99844.06;;;23.20;26.95
2675;BME280;1347;42.122;24.746;2023-02-18T13:08:09;99845.09;;;23.99;26.43
2675;BME280;1347;42.122;24.746;2023-02-18T13:11:05;99839.41;;;24.68;25.70
2675;BME280;1347;42.122;24.746;2023-02-18T13:13:39;99842.59;;;25.41;25.25
2675;BME280;1347;42.122;24.746;2023-02-18T13:16:10;99840.31;;;25.17;25.71
2675;BME280;1347;42.122;24.746;2023-02-18T13:18:40;99838.19;;;25.30;25.43
2675;BME280;1347;42.122;24.746;2023-02-18T13:21:11;99823.13;;;25.06;25.89
2675;BME280;1347;42.122;24.746;2023-02-18T13:23:45;99820.94;;;25.01;25.86
2675;BME280;1347;42.122;24.746;2023-02-18T13:26:16;99839.91;;;25.37;25.89
2675;BME280;1347;42.122;24.746;2023-02-18T13:28:49;99824.84;;;25.04;25.97
2675;BME280;1347;42.122;24.746;2023-02-18T13:31:27;99844.84;;;24.62;26.15
2675;BME280;1347;42.122;24.746;2023-02-18T13:34:01;99842.81;;;24.63;26.03
2675;BME280;1347;42.122;24.746;2023-02-18T13:36:39;99844.63;;;24.35;26.40
2675;BME280;1347;42.122;24.746;2023-02-18T13:39:13;99835.84;;;24.45;26.42
2675;BME280;1347;42.122;24.746;2023-02-18T13:41:46;99828.75;;;25.15;25.79
2675;BME280;1347;42.122;24.746;2023-02-18T13:47:35;99845.47;;;24.44;26.32
2675;BME280;1347;42.122;24.746;2023-02-18T13:50:14;99844.03;;;23.71;27.16
2675;BME280;1347;42.122;24.746;2023-02-18T13:52:42;99836.66;;;23.52;27.32
2675;BME280;1347;42.122;24.746;2023-02-18T13:55:17;99820.56;;;23.30;27.75
2675;BME280;1347;42.122;24.746;2023-02-18T13:57:49;99822.47;;;23.08;27.94
2675;BME280;1347;42.122;24.746;2023-02-18T14:00:21;99832.19;;;23.03;29.75
2675;BME280;1347;42.122;24.746;2023-02-18T14:02:57;99830.81;;;22.83;28.90
2675;BME280;1347;42.122;24.746;2023-02-18T14:05:25;99823.91;;;22.46;28.78
2675;BME280;1347;42.122;24.746;2023-02-18T14:08:10;99833.66;;;22.25;29.41
2675;BME280;1347;42.122;24.746;2023-02-18T14:10:38;99839.25;;;22.25;28.78
2675;BME280;1347;42.122;24.746;2023-02-18T14:13:22;99830.31;;;22.01;29.65
2675;BME280;1347;42.122;24.746;2023-02-18T14:15:56;99840.63;;;21.88;29.82
2675;BME280;1347;42.122;24.746;2023-02-18T14:18:58;99832.97;;;21.76;29.52
2675;BME280;1347;42.122;24.746;2023-02-18T14:21:37;99841.56;;;21.81;29.45
2675;BME280;1347;42.122;24.746;2023-02-18T14:24:06;99836.59;;;21.89;29.41
2675;BME280;1347;42.122;24.746;2023-02-18T14:26:46;99831.47;;;21.71;30.00
2675;BME280;1347;42.122;24.746;2023-02-18T14:29:25;99828.16;;;21.60;29.99
2675;BME280;1347;42.122;24.746;2023-02-18T14:31:56;99835.31;;;21.61;29.78
2675;BME280;1347;42.122;24.746;2023-02-18T14:34:52;99828.88;;;21.64;30.04
2675;BME280;1347;42.122;24.746;2023-02-18T14:37:50;99821.03;;;21.43;29.80
2675;BME280;1347;42.122;24.746;2023-02-18T14:40:34;99822.31;;;21.22;29.87
2675;BME280;1347;42.122;24.746;2023-02-18T14:43:09;99815.88;;;21.25;30.33
2675;BME280;1347;42.122;24.746;2023-02-18T14:45:59;99822.38;;;21.18;30.36
2675;BME280;1347;42.122;24.746;2023-02-18T14:48:42;99819.38;;;20.93;30.39
2675;BME280;1347;42.122;24.746;2023-02-18T14:51:14;99823.44;;;20.88;30.68
2675;BME280;1347;42.122;24.746;2023-02-18T14:53:44;99817.59;;;20.83;30.82
2675;BME280;1347;42.122;24.746;2023-02-18T14:56:13;99816.41;;;20.84;31.40
2675;BME280;1347;42.122;24.746;2023-02-18T14:58:43;99814.19;;;20.75;31.02
2675;BME280;1347;42.122;24.746;2023-02-18T15:01:19;99816.22;;;20.55;31.10
2675;BME280;1347;42.122;24.746;2023-02-18T15:03:48;99813.34;;;20.58;30.95